createdAt,value
2023-05-10T00:00:46.308Z,0.75
2023-05-10T00:03:13.079Z,0.70
2023-05-10T00:05:40.099Z,1.00
2023-05-10T00:08:06.759Z,0.82
2023-05-10T00:10:33.447Z,1.08
2023-05-10T00:13:00.160Z,1.00
2023-05-10T00:15:26.782Z,0.95
2023-05-10T00:17:55.677Z,1.00
2023-05-10T00:20:22.382Z,0.70
2023-05-10T00:22:49.008Z,0.90
2023-05-10T00:25:15.780Z,1.08
2023-05-10T00:27:42.388Z,0.82
2023-05-10T00:30:09.424Z,0.90
2023-05-10T00:32:36.129Z,0.82
2023-05-10T00:35:02.806Z,1.30
2023-05-10T00:37:29.455Z,1.00
2023-05-10T00:39:56.087Z,0.93
2023-05-10T00:42:25.494Z,0.90
2023-05-10T00:44:52.219Z,0.93
2023-05-10T00:47:18.962Z,0.90
2023-05-10T00:49:45.881Z,1.40
2023-05-10T00:52:12.632Z,0.70
2023-05-10T00:54:39.271Z,1.10
2023-05-10T00:57:05.998Z,0.82
2023-05-10T00:59:32.681Z,1.10
2023-05-10T01:01:59.488Z,1.10
2023-05-10T01:04:29.502Z,0.80
2023-05-10T01:06:56.226Z,1.23
2023-05-10T01:09:23.055Z,0.80
2023-05-10T01:11:49.681Z,1.00
2023-05-10T01:14:16.442Z,1.00
2023-05-10T01:16:43.080Z,1.00
2023-05-10T01:19:39.158Z,0.90
2023-05-10T01:22:33.741Z,0.98
2023-05-10T01:25:18.279Z,0.80
2023-05-10T01:28:06.732Z,0.93
2023-05-10T01:31:00.718Z,1.00
2023-05-10T01:33:43.034Z,0.88
2023-05-10T01:36:28.025Z,0.80
2023-05-10T01:39:01.691Z,1.00
2023-05-10T01:41:56.557Z,1.35
2023-05-10T01:44:32.376Z,0.90
2023-05-10T01:49:32.044Z,0.70
2023-05-10T01:52:05.529Z,0.95
2023-05-10T01:54:32.194Z,1.12
2023-05-10T01:57:04.721Z,1.10
2023-05-10T01:59:32.904Z,1.10
2023-05-10T02:02:00.023Z,1.00
2023-05-10T02:04:29.295Z,1.15
2023-05-10T02:06:56.031Z,0.98
2023-05-10T02:09:22.676Z,1.00
2023-05-10T02:11:49.405Z,1.10
2023-05-10T02:14:16.393Z,0.98
2023-05-10T02:16:43.071Z,0.90
2023-05-10T02:19:10.254Z,0.85
2023-05-10T02:21:37.230Z,0.95
2023-05-10T02:24:04.211Z,1.00
2023-05-10T02:26:30.967Z,0.95
2023-05-10T02:28:57.848Z,1.02
2023-05-10T02:31:24.594Z,0.82
2023-05-10T02:33:51.271Z,1.17
2023-05-10T02:36:18.129Z,0.95
2023-05-10T02:38:45.093Z,0.90
2023-05-10T02:41:11.794Z,1.00
2023-05-10T02:43:38.421Z,1.02
2023-05-10T02:46:05.160Z,0.88
2023-05-10T02:48:31.793Z,0.90
2023-05-10T02:51:02.055Z,1.25
2023-05-10T02:53:32.312Z,0.90
2023-05-10T02:56:01.832Z,1.10
2023-05-10T02:58:28.399Z,1.00
2023-05-10T03:00:55.218Z,1.10
2023-05-10T03:03:22.059Z,0.80
2023-05-10T03:05:48.680Z,0.77
2023-05-10T03:08:15.342Z,0.95
2023-05-10T03:11:27.134Z,1.08
2023-05-10T03:14:03.193Z,0.90
2023-05-10T03:16:48.087Z,0.98
2023-05-10T03:19:23.352Z,1.00
2023-05-10T03:21:52.430Z,1.10
2023-05-10T03:24:21.293Z,1.00
2023-05-10T03:26:48.085Z,1.20
2023-05-10T03:29:15.468Z,1.30
2023-05-10T03:31:42.121Z,1.20
2023-05-10T03:34:11.776Z,1.00
2023-05-10T03:36:38.650Z,0.93
2023-05-10T03:39:05.342Z,1.50
2023-05-10T03:41:32.111Z,1.08
2023-05-10T03:43:58.757Z,1.12
2023-05-10T03:46:27.462Z,2.92
2023-05-10T03:48:54.115Z,3.20
2023-05-10T03:51:21.410Z,3.05
2023-05-10T03:53:47.989Z,2.50
2023-05-10T03:56:14.580Z,2.50
2023-05-10T03:58:41.368Z,1.48
2023-05-10T04:01:07.994Z,1.40
2023-05-10T04:03:36.613Z,1.30
2023-05-10T04:06:03.871Z,1.48
2023-05-10T04:08:30.736Z,1.30
2023-05-10T04:11:10.226Z,1.33
2023-05-10T04:13:36.950Z,1.40
2023-05-10T04:16:03.861Z,1.30
2023-05-10T04:18:30.660Z,1.30
2023-05-10T04:20:57.257Z,1.58
2023-05-10T04:23:24.241Z,1.17
2023-05-10T04:25:50.859Z,2.17
2023-05-10T04:28:17.675Z,1.30
2023-05-10T04:30:47.142Z,1.48
2023-05-10T04:33:13.896Z,1.35
2023-05-10T04:35:41.120Z,1.30
2023-05-10T04:38:08.054Z,1.40
2023-05-10T04:40:35.396Z,1.10
2023-05-10T04:43:02.057Z,1.58
2023-05-10T04:45:28.702Z,1.35
2023-05-10T04:47:55.392Z,1.60
2023-05-10T04:50:22.048Z,6.40
2023-05-10T04:52:48.688Z,2.62
2023-05-10T04:55:15.404Z,3.35
2023-05-10T04:57:42.118Z,3.37
2023-05-10T05:00:09.385Z,2.12
2023-05-10T05:02:36.070Z,2.30
2023-05-10T05:05:02.939Z,2.10
2023-05-10T05:07:29.969Z,1.70
2023-05-10T05:09:56.577Z,2.08
2023-05-10T05:12:23.401Z,2.30
2023-05-10T05:14:50.142Z,2.30
2023-05-10T05:17:17.146Z,2.22
2023-05-10T05:19:43.773Z,2.03
2023-05-10T05:22:10.630Z,1.90
2023-05-10T05:24:40.311Z,2.45
2023-05-10T05:27:07.094Z,1.95
2023-05-10T05:29:33.719Z,2.45
2023-05-10T05:32:00.418Z,1.95
2023-05-10T05:34:27.177Z,2.25
2023-05-10T05:36:53.810Z,2.75
2023-05-10T05:39:20.497Z,2.42
2023-05-10T05:41:47.429Z,2.10
2023-05-10T05:44:14.098Z,2.62
2023-05-10T05:46:40.816Z,2.67
2023-05-10T05:49:07.468Z,3.45
2023-05-10T05:51:34.064Z,3.25
2023-05-10T05:54:00.685Z,2.50
2023-05-10T05:56:27.323Z,2.80
2023-05-10T05:58:54.008Z,2.50
2023-05-10T06:01:20.933Z,2.35
2023-05-10T06:03:48.029Z,2.12
2023-05-10T06:06:15.461Z,2.20
2023-05-10T06:08:44.720Z,2.10
2023-05-10T06:11:11.440Z,1.92
2023-05-10T06:13:38.050Z,1.83
2023-05-10T06:16:04.874Z,2.00
2023-05-10T06:18:31.582Z,2.22
2023-05-10T06:20:58.540Z,2.28
2023-05-10T06:23:26.489Z,2.37
2023-05-10T06:25:53.383Z,2.60
2023-05-10T06:28:19.961Z,6.53
2023-05-10T06:30:49.016Z,2.75
2023-05-10T06:33:17.019Z,2.40
2023-05-10T06:38:28.835Z,2.53
2023-05-10T06:40:55.668Z,2.83
2023-05-10T06:43:22.431Z,2.87
2023-05-10T06:45:49.479Z,2.25
2023-05-10T06:48:16.580Z,2.28
2023-05-10T06:50:45.117Z,2.00
2023-05-10T06:53:13.067Z,1.60
2023-05-10T06:55:40.171Z,2.10
2023-05-10T06:58:07.333Z,1.90
2023-05-10T07:00:34.321Z,1.80
2023-05-10T07:03:01.086Z,1.98
2023-05-10T07:05:29.029Z,2.00
2023-05-10T07:07:55.887Z,1.52
2023-05-10T07:10:22.634Z,1.58
2023-05-10T07:12:49.308Z,1.83
2023-05-10T07:15:17.269Z,2.10
2023-05-10T07:17:45.923Z,1.60
2023-05-10T07:20:13.239Z,1.95
2023-05-10T07:22:39.851Z,1.70
2023-05-10T07:25:07.025Z,1.80
2023-05-10T07:27:33.637Z,1.85
2023-05-10T07:30:00.260Z,2.25
2023-05-10T07:32:26.928Z,1.90
2023-05-10T07:34:53.625Z,1.87
2023-05-10T07:37:20.277Z,1.50
2023-05-10T07:39:46.874Z,1.77
2023-05-10T07:42:13.698Z,1.45
2023-05-10T07:44:40.293Z,1.83
2023-05-10T07:47:08.219Z,1.52
2023-05-10T07:49:34.988Z,1.45
2023-05-10T07:52:01.608Z,1.60
2023-05-10T07:54:28.206Z,1.70
2023-05-10T07:56:54.791Z,1.90
2023-05-10T07:59:21.428Z,1.52
2023-05-10T08:01:48.022Z,1.60
2023-05-10T08:04:14.815Z,1.50
2023-05-10T08:06:41.680Z,2.05
2023-05-10T08:09:08.557Z,1.60
2023-05-10T08:11:35.357Z,1.50
2023-05-10T08:14:04.304Z,1.40
2023-05-10T08:16:30.986Z,1.52
2023-05-10T08:18:57.779Z,1.77
2023-05-10T08:21:24.525Z,1.60
2023-05-10T08:23:51.313Z,1.73
2023-05-10T08:26:18.055Z,1.30
2023-05-10T08:28:46.717Z,1.90
2023-05-10T08:31:13.469Z,1.37
2023-05-10T08:33:41.521Z,1.45
2023-05-10T08:36:09.101Z,1.73
2023-05-10T08:38:35.852Z,1.80
2023-05-10T08:41:02.996Z,1.90
2023-05-10T08:43:33.152Z,1.58
2023-05-10T08:46:04.089Z,1.58
2023-05-10T08:48:31.193Z,1.40
2023-05-10T08:50:59.093Z,2.00
2023-05-10T08:53:27.611Z,1.40
2023-05-10T08:55:54.257Z,1.60
2023-05-10T08:58:21.337Z,1.77
2023-05-10T09:00:49.562Z,1.75
2023-05-10T09:03:16.652Z,1.60
2023-05-10T09:05:43.383Z,2.12
2023-05-10T09:08:10.065Z,1.70
2023-05-10T09:10:36.698Z,1.80
2023-05-10T09:13:03.312Z,2.05
2023-05-10T09:15:29.923Z,1.62
2023-05-10T09:17:57.190Z,1.70
2023-05-10T09:20:23.938Z,1.60
2023-05-10T09:22:50.682Z,1.70
2023-05-10T09:25:17.810Z,1.58
2023-05-10T09:27:48.556Z,1.40
2023-05-10T09:30:26.505Z,1.67
2023-05-10T09:32:53.314Z,1.85
2023-05-10T09:35:29.965Z,1.33
2023-05-10T09:37:58.025Z,1.50
2023-05-10T09:40:25.803Z,1.65
2023-05-10T09:42:55.234Z,1.75
2023-05-10T09:45:22.578Z,1.65
2023-05-10T09:47:51.659Z,2.15
2023-05-10T09:50:18.619Z,1.50
2023-05-10T09:53:01.528Z,1.30
2023-05-10T09:55:37.074Z,1.58
2023-05-10T09:58:03.798Z,1.65
2023-05-10T10:00:35.487Z,1.40
2023-05-10T10:03:02.412Z,1.35
2023-05-10T10:05:36.249Z,1.20
2023-05-10T10:08:06.202Z,1.40
2023-05-10T10:10:33.989Z,1.45
2023-05-10T10:13:00.823Z,1.20
2023-05-10T10:15:29.861Z,1.75
2023-05-10T10:17:56.529Z,2.28
2023-05-10T10:20:23.639Z,1.42
2023-05-10T10:22:50.295Z,1.67
2023-05-10T10:25:18.703Z,1.75
2023-05-10T10:27:54.539Z,1.33
2023-05-10T10:30:28.557Z,1.52
2023-05-10T10:33:36.412Z,1.70
2023-05-10T10:36:04.299Z,1.52
2023-05-10T10:39:01.222Z,1.50
2023-05-10T10:41:38.257Z,1.98
2023-05-10T10:44:23.361Z,1.70
2023-05-10T10:47:13.052Z,1.45
2023-05-10T10:49:39.858Z,1.60
2023-05-10T10:52:22.805Z,1.60
2023-05-10T10:55:10.299Z,1.60
2023-05-10T10:57:55.867Z,1.60
2023-05-10T11:00:32.892Z,1.70
2023-05-10T11:03:09.049Z,1.23
2023-05-10T11:05:37.272Z,1.67
2023-05-10T11:08:23.240Z,1.40
2023-05-10T11:10:53.045Z,1.80
2023-05-10T11:13:44.361Z,1.52
2023-05-10T11:16:17.968Z,1.30
2023-05-10T11:19:04.997Z,1.48
2023-05-10T11:21:32.463Z,1.42
2023-05-10T11:24:06.796Z,1.77
2023-05-10T11:26:37.329Z,1.37
2023-05-10T11:29:05.896Z,1.55
2023-05-10T11:31:32.651Z,1.23
2023-05-10T11:34:00.217Z,1.20
2023-05-10T11:36:44.956Z,1.40
2023-05-10T11:39:12.551Z,1.40
2023-05-10T11:41:39.654Z,1.45
2023-05-10T11:44:10.573Z,2.17
2023-05-10T11:46:37.593Z,1.30
2023-05-10T11:49:08.004Z,1.35
2023-05-10T11:51:37.825Z,1.35
2023-05-10T11:54:09.581Z,1.65
2023-05-10T11:56:36.189Z,1.12
2023-05-10T11:59:03.461Z,2.08
2023-05-10T12:01:30.292Z,1.08
2023-05-10T12:04:01.525Z,1.67
2023-05-10T12:06:33.332Z,1.40
2023-05-10T12:09:00.050Z,1.20
2023-05-10T12:11:28.149Z,1.75
2023-05-10T12:13:56.426Z,1.48
2023-05-10T12:16:27.246Z,1.58
2023-05-10T12:18:55.711Z,1.48
2023-05-10T12:21:22.512Z,1.60
2023-05-10T12:23:53.600Z,1.08
2023-05-10T12:26:23.662Z,1.40
2023-05-10T12:28:50.499Z,1.00
2023-05-10T12:31:17.205Z,1.00
2023-05-10T12:33:44.578Z,1.50
2023-05-10T12:36:12.127Z,1.20
2023-05-10T12:38:44.186Z,1.20
2023-05-10T12:41:12.007Z,1.20
2023-05-10T12:43:39.000Z,1.10
2023-05-10T12:46:06.524Z,1.00
2023-05-10T12:48:34.791Z,1.10
2023-05-10T12:51:02.393Z,1.20
2023-05-10T12:53:29.119Z,1.00
2023-05-10T12:55:56.060Z,0.90
2023-05-10T12:58:34.838Z,1.12
2023-05-10T13:01:02.955Z,1.00
2023-05-10T13:03:29.640Z,1.30
2023-05-10T13:05:56.294Z,1.20
2023-05-10T13:08:22.864Z,1.25
2023-05-10T13:10:49.581Z,0.90
2023-05-10T13:13:16.543Z,0.90
2023-05-10T13:15:43.151Z,1.20
2023-05-10T13:18:09.810Z,1.10
2023-05-10T13:20:36.702Z,1.10
2023-05-10T13:23:03.983Z,1.10
2023-05-10T13:25:31.008Z,0.93
2023-05-10T13:27:57.633Z,1.00
2023-05-10T13:30:24.974Z,1.60
2023-05-10T13:32:51.809Z,1.00
2023-05-10T13:35:18.466Z,1.10
2023-05-10T13:37:45.086Z,0.80
2023-05-10T13:40:11.994Z,1.00
2023-05-10T13:42:38.600Z,1.00
2023-05-10T13:45:05.730Z,1.42
2023-05-10T13:47:32.373Z,1.20
2023-05-10T13:49:59.445Z,1.20
2023-05-10T13:52:26.864Z,1.10
2023-05-10T13:54:55.894Z,0.80
2023-05-10T13:57:23.724Z,1.10
2023-05-10T13:59:50.367Z,0.82
2023-05-10T14:02:17.187Z,0.93
2023-05-10T14:04:43.751Z,0.90
2023-05-10T14:07:10.450Z,1.00
2023-05-10T14:09:37.066Z,0.90
2023-05-10T14:12:03.926Z,0.90
2023-05-10T14:14:30.512Z,0.80
2023-05-10T14:16:57.240Z,0.98
2023-05-10T14:19:23.898Z,1.10
2023-05-10T14:21:50.490Z,0.90
2023-05-10T14:24:17.060Z,0.90
2023-05-10T14:26:43.817Z,1.00
2023-05-10T14:29:12.476Z,0.88
2023-05-10T14:31:39.484Z,0.80
2023-05-10T14:34:06.703Z,0.88
2023-05-10T14:36:33.508Z,1.05
2023-05-10T14:39:00.300Z,1.35
2023-05-10T14:41:26.924Z,0.90
2023-05-10T14:43:53.708Z,0.85
2023-05-10T14:46:20.873Z,0.95
2023-05-10T14:48:47.573Z,0.90
2023-05-10T14:51:14.289Z,0.75
2023-05-10T14:53:43.140Z,0.90
2023-05-10T14:56:09.715Z,0.88
2023-05-10T14:58:36.405Z,1.27
2023-05-10T15:01:02.992Z,0.60
2023-05-10T15:03:30.248Z,1.10
2023-05-10T15:05:58.653Z,1.20
2023-05-10T15:08:28.791Z,0.75
2023-05-10T15:10:56.974Z,1.25
2023-05-10T15:13:23.664Z,0.93
2023-05-10T15:15:52.364Z,0.90
2023-05-10T15:18:19.097Z,0.88
2023-05-10T15:20:45.696Z,0.82
2023-05-10T15:23:12.359Z,0.70
2023-05-10T15:25:38.956Z,0.80
2023-05-10T15:28:05.744Z,0.93
2023-05-10T15:30:32.373Z,0.90
2023-05-10T15:32:59.240Z,0.90
2023-05-10T15:35:26.991Z,1.02
2023-05-10T15:37:53.577Z,1.60
2023-05-10T15:40:20.423Z,1.00
2023-05-10T15:42:47.044Z,0.88
2023-05-10T15:45:13.647Z,0.90
2023-05-10T15:47:40.636Z,0.90
2023-05-10T15:50:07.825Z,0.90
2023-05-10T15:52:34.884Z,0.80
2023-05-10T15:55:01.513Z,0.77
2023-05-10T15:57:28.132Z,0.90
2023-05-10T15:59:56.882Z,0.80
2023-05-10T16:02:23.638Z,0.70
2023-05-10T16:04:50.345Z,0.90
2023-05-10T16:07:16.922Z,0.85
2023-05-10T16:09:46.348Z,0.65
2023-05-10T16:12:12.921Z,0.68
2023-05-10T16:14:39.504Z,0.70
2023-05-10T16:17:06.349Z,0.75
2023-05-10T16:19:33.221Z,0.70
2023-05-10T16:21:59.805Z,1.23
2023-05-10T16:24:26.476Z,0.75
2023-05-10T16:26:53.187Z,0.68
2023-05-10T16:29:19.846Z,0.90
2023-05-10T16:31:46.989Z,0.95
2023-05-10T16:34:13.679Z,0.80
2023-05-10T16:36:40.451Z,0.70
2023-05-10T16:39:07.744Z,0.57
2023-05-10T16:41:34.663Z,1.10
2023-05-10T16:44:01.889Z,0.77
2023-05-10T16:46:28.537Z,0.60
2023-05-10T16:48:55.200Z,0.90
2023-05-10T16:51:21.844Z,0.82
2023-05-10T16:53:48.493Z,0.90
2023-05-10T16:56:17.698Z,0.80
2023-05-10T16:58:44.473Z,0.70
2023-05-10T17:01:11.108Z,0.90
2023-05-10T17:03:37.937Z,0.80
2023-05-10T17:06:05.969Z,0.75
2023-05-10T17:08:32.977Z,0.80
2023-05-10T17:11:03.874Z,0.80
2023-05-10T17:13:30.671Z,0.85
2023-05-10T17:15:57.460Z,1.08
2023-05-10T17:18:24.184Z,0.90
2023-05-10T17:20:50.841Z,1.02
2023-05-10T17:23:17.589Z,0.98
2023-05-10T17:25:44.320Z,0.95
2023-05-10T17:28:11.017Z,0.80
2023-05-10T17:30:37.626Z,0.93
2023-05-10T17:33:04.975Z,0.77
2023-05-10T17:35:31.976Z,0.90
2023-05-10T17:37:58.665Z,0.90
2023-05-10T17:40:25.573Z,0.80
2023-05-10T17:42:52.363Z,0.88
2023-05-10T17:45:19.245Z,0.88
2023-05-10T17:47:46.382Z,1.15
2023-05-10T17:50:13.025Z,0.90
2023-05-10T17:52:39.644Z,1.10
2023-05-10T17:55:06.921Z,1.33
2023-05-10T17:57:33.698Z,0.80
2023-05-10T18:00:04.512Z,1.05
2023-05-10T18:02:31.155Z,1.17
2023-05-10T18:05:00.052Z,1.20
2023-05-10T18:07:27.198Z,0.88
2023-05-10T18:09:53.820Z,1.10
2023-05-10T18:12:20.440Z,0.88
2023-05-10T18:14:47.169Z,1.02
2023-05-10T18:17:13.804Z,1.00
2023-05-10T18:19:40.753Z,1.00
2023-05-10T18:22:10.519Z,1.62
2023-05-10T18:24:39.484Z,1.58
2023-05-10T18:27:07.995Z,1.40
2023-05-10T18:29:34.756Z,1.33
2023-05-10T18:32:01.421Z,1.60
2023-05-10T18:34:28.797Z,1.10
2023-05-10T18:36:55.542Z,1.40
2023-05-10T18:39:22.344Z,1.27
2023-05-10T18:41:50.240Z,1.50
2023-05-10T18:44:16.969Z,1.00
2023-05-10T18:46:43.681Z,1.10
2023-05-10T18:49:10.295Z,1.20
2023-05-10T18:51:36.876Z,1.20
2023-05-10T18:54:03.605Z,1.30
2023-05-10T18:56:30.459Z,1.30
2023-05-10T18:58:57.193Z,1.30
2023-05-10T19:01:23.875Z,1.10
2023-05-10T19:03:50.553Z,1.30
2023-05-10T19:06:17.149Z,1.15
2023-05-10T19:08:43.802Z,1.08
2023-05-10T19:11:13.049Z,1.23
2023-05-10T19:13:39.637Z,0.95
2023-05-10T19:16:10.556Z,1.95
2023-05-10T19:18:38.375Z,2.92
2023-05-10T19:21:10.927Z,3.33
2023-05-10T19:23:39.036Z,2.15
2023-05-10T19:26:05.898Z,1.73
2023-05-10T19:28:32.523Z,1.50
2023-05-10T19:31:02.151Z,1.42
2023-05-10T19:33:28.852Z,1.67
2023-05-10T19:35:58.252Z,1.40
2023-05-10T19:38:25.105Z,1.50
2023-05-10T19:40:57.721Z,1.42
2023-05-10T19:43:27.733Z,1.37
2023-05-10T19:45:54.886Z,1.80
2023-05-10T19:48:21.639Z,1.40
2023-05-10T19:50:48.285Z,1.40
2023-05-10T19:53:14.914Z,1.40
2023-05-10T19:55:41.689Z,1.60
2023-05-10T19:58:08.363Z,1.67
2023-05-10T20:00:35.075Z,1.58
2023-05-10T20:03:02.166Z,1.58
2023-05-10T20:05:29.057Z,1.30
2023-05-10T20:07:55.755Z,1.20
2023-05-10T20:10:22.999Z,1.20
2023-05-10T20:12:53.893Z,1.50
2023-05-10T20:15:21.907Z,1.30
2023-05-10T20:17:49.385Z,1.70
2023-05-10T20:20:16.657Z,1.60
2023-05-10T20:22:44.314Z,1.55
2023-05-10T20:25:11.119Z,1.90
2023-05-10T20:27:37.700Z,1.65
2023-05-10T20:30:04.981Z,1.85
2023-05-10T20:32:31.992Z,2.00
2023-05-10T20:34:58.615Z,1.77
2023-05-10T20:37:25.324Z,2.50
2023-05-10T20:39:51.910Z,2.30
2023-05-10T20:42:18.543Z,2.22
2023-05-10T20:44:45.131Z,2.05
2023-05-10T20:47:11.749Z,2.05
2023-05-10T20:49:38.461Z,1.87
2023-05-10T20:52:05.675Z,1.37
2023-05-10T20:54:32.277Z,1.60
2023-05-10T20:56:59.363Z,1.77
2023-05-10T20:59:25.967Z,1.65
2023-05-10T21:01:55.017Z,1.42
2023-05-10T21:04:21.844Z,1.27
2023-05-10T21:06:48.474Z,1.40
2023-05-10T21:09:15.094Z,1.50
2023-05-10T21:11:41.773Z,1.67
2023-05-10T21:14:08.688Z,1.40
2023-05-10T21:16:35.469Z,1.70
2023-05-10T21:19:02.417Z,1.42
2023-05-10T21:21:29.374Z,1.40
2023-05-10T21:23:56.080Z,1.50
2023-05-10T21:26:23.348Z,1.10
2023-05-10T21:28:49.999Z,1.50
2023-05-10T21:31:16.958Z,1.42
2023-05-10T21:33:43.677Z,1.50
2023-05-10T21:36:10.306Z,1.73
2023-05-10T21:38:36.966Z,1.40
2023-05-10T21:41:07.140Z,1.45
2023-05-10T21:43:33.932Z,1.30
2023-05-10T21:46:01.062Z,1.45
2023-05-10T21:48:29.797Z,1.45
2023-05-10T21:50:56.501Z,1.37
2023-05-10T21:53:23.102Z,1.98
2023-05-10T21:55:49.694Z,2.00
2023-05-10T21:58:16.282Z,1.67
2023-05-10T22:00:43.378Z,2.00
2023-05-10T22:03:10.101Z,2.30
2023-05-10T22:05:36.841Z,2.03
2023-05-10T22:08:03.596Z,2.15
2023-05-10T22:10:30.460Z,2.40
2023-05-10T22:12:57.422Z,1.45
2023-05-10T22:15:24.129Z,1.50
2023-05-10T22:17:50.950Z,2.05
2023-05-10T22:20:17.958Z,1.50
2023-05-10T22:22:45.355Z,1.70
2023-05-10T22:25:11.950Z,1.35
2023-05-10T22:27:38.550Z,1.25
2023-05-10T22:30:06.941Z,1.40
2023-05-10T22:32:33.631Z,1.10
2023-05-10T22:35:00.265Z,1.50
2023-05-10T22:37:26.969Z,1.60
2023-05-10T22:39:53.770Z,1.70
2023-05-10T22:42:20.497Z,1.25
2023-05-10T22:44:47.161Z,1.50
2023-05-10T22:47:13.767Z,1.27
2023-05-10T22:49:40.375Z,1.40
2023-05-10T22:52:06.976Z,1.58
2023-05-10T22:54:36.011Z,1.62
2023-05-10T22:57:02.911Z,1.62
2023-05-10T22:59:29.550Z,1.58
2023-05-10T23:01:56.170Z,1.30
2023-05-10T23:04:25.179Z,1.30
2023-05-10T23:06:51.852Z,1.50
2023-05-10T23:09:18.714Z,1.60
2023-05-10T23:11:45.294Z,1.40
2023-05-10T23:14:11.973Z,1.55
2023-05-10T23:16:38.726Z,1.45
2023-05-10T23:19:05.450Z,1.37
2023-05-10T23:21:32.312Z,1.52
2023-05-10T23:23:59.088Z,1.70
2023-05-10T23:26:25.755Z,1.40
2023-05-10T23:28:52.385Z,1.35
2023-05-10T23:31:19.127Z,1.52
2023-05-10T23:33:45.924Z,1.27
2023-05-10T23:36:12.656Z,1.62
2023-05-10T23:38:39.541Z,1.50
2023-05-10T23:41:06.223Z,1.70
2023-05-10T23:43:32.878Z,1.40
2023-05-10T23:45:59.644Z,1.37
2023-05-10T23:48:26.351Z,1.33
2023-05-10T23:50:53.081Z,1.50
2023-05-10T23:53:19.662Z,1.35
2023-05-10T23:55:46.488Z,1.10
2023-05-10T23:58:13.055Z,1.33
